sensor_id;sensor_type;location;lat;lon;timestamp;temperature;humidity
62809;DHT22;48848;39.002;-94.584;2022-09-01T00:01:21;23.60;39.30
62809;DHT22;48848;39.002;-94.584;2022-09-01T00:03:51;23.70;39.40
62809;DHT22;48848;39.002;-94.584;2022-09-01T00:06:19;23.60;39.40
62809;DHT22;48848;39.002;-94.584;2022-09-01T00:08:50;23.50;40.10
62809;DHT22;48848;39.002;-94.584;2022-09-01T00:11:17;23.50;40.10
62809;DHT22;48848;39.002;-94.584;2022-09-01T00:13:43;23.40;40.10
62809;DHT22;48848;39.002;-94.584;2022-09-01T00:16:09;23.40;40.00
62809;DHT22;48848;39.002;-94.584;2022-09-01T00:18:39;23.40;39.90
62809;DHT22;48848;39.002;-94.584;2022-09-01T00:21:07;23.40;39.90
62809;DHT22;48848;39.002;-94.584;2022-09-01T00:23:33;23.40;39.90
62809;DHT22;48848;39.002;-94.584;2022-09-01T00:25:59;23.30;40.00
62809;DHT22;48848;39.002;-94.584;2022-09-01T00:28:24;23.30;39.70
62809;DHT22;48848;39.002;-94.584;2022-09-01T00:30:50;23.30;39.80
62809;DHT22;48848;39.002;-94.584;2022-09-01T00:33:18;23.20;40.00
62809;DHT22;48848;39.002;-94.584;2022-09-01T00:35:44;23.10;43.50
62809;DHT22;48848;39.002;-94.584;2022-09-01T00:38:10;23.30;40.30
62809;DHT22;48848;39.002;-94.584;2022-09-01T00:40:36;23.20;39.90
62809;DHT22;48848;39.002;-94.584;2022-09-01T00:43:22;23.20;39.80
62809;DHT22;48848;39.002;-94.584;2022-09-01T00:45:48;23.10;39.70
62809;DHT22;48848;39.002;-94.584;2022-09-01T00:48:17;23.10;39.80
62809;DHT22;48848;39.002;-94.584;2022-09-01T00:50:45;23.10;39.80
62809;DHT22;48848;39.002;-94.584;2022-09-01T00:53:11;23.00;39.80
62809;DHT22;48848;39.002;-94.584;2022-09-01T00:55:37;23.00;39.60
62809;DHT22;48848;39.002;-94.584;2022-09-01T00:58:04;22.90;39.60
62809;DHT22;48848;39.002;-94.584;2022-09-01T01:00:32;22.90;39.60
62809;DHT22;48848;39.002;-94.584;2022-09-01T01:02:58;22.90;39.70
62809;DHT22;48848;39.002;-94.584;2022-09-01T01:05:25;22.90;39.70
62809;DHT22;48848;39.002;-94.584;2022-09-01T01:07:55;22.90;39.50
62809;DHT22;48848;39.002;-94.584;2022-09-01T01:10:21;22.80;39.50
62809;DHT22;48848;39.002;-94.584;2022-09-01T01:12:48;22.80;40.00
62809;DHT22;48848;39.002;-94.584;2022-09-01T01:15:19;22.90;39.50
62809;DHT22;48848;39.002;-94.584;2022-09-01T01:17:45;22.80;40.00
62809;DHT22;48848;39.002;-94.584;2022-09-01T01:20:11;22.80;39.60
62809;DHT22;48848;39.002;-94.584;2022-09-01T01:23:20;22.80;39.60
62809;DHT22;48848;39.002;-94.584;2022-09-01T01:25:53;22.70;39.60
62809;DHT22;48848;39.002;-94.584;2022-09-01T01:28:20;22.70;39.60
62809;DHT22;48848;39.002;-94.584;2022-09-01T01:30:48;22.60;39.60
62809;DHT22;48848;39.002;-94.584;2022-09-01T01:33:22;22.80;39.30
62809;DHT22;48848;39.002;-94.584;2022-09-01T01:35:50;22.70;39.20
62809;DHT22;48848;39.002;-94.584;2022-09-01T01:38:16;22.70;39.40
62809;DHT22;48848;39.002;-94.584;2022-09-01T01:40:45;23.30;39.20
62809;DHT22;48848;39.002;-94.584;2022-09-01T01:43:10;24.10;38.20
62809;DHT22;48848;39.002;-94.584;2022-09-01T01:45:51;24.40;37.40
62809;DHT22;48848;39.002;-94.584;2022-09-01T01:48:18;24.50;37.20
62809;DHT22;48848;39.002;-94.584;2022-09-01T01:50:51;24.60;36.90
62809;DHT22;48848;39.002;-94.584;2022-09-01T01:53:18;24.60;36.80
62809;DHT22;48848;39.002;-94.584;2022-09-01T01:55:45;24.60;36.80
62809;DHT22;48848;39.002;-94.584;2022-09-01T01:58:14;24.70;37.00
62809;DHT22;48848;39.002;-94.584;2022-09-01T02:00:40;24.80;36.40
62809;DHT22;48848;39.002;-94.584;2022-09-01T02:03:09;24.90;36.30
62809;DHT22;48848;39.002;-94.584;2022-09-01T02:05:37;24.90;36.30
62809;DHT22;48848;39.002;-94.584;2022-09-01T02:08:05;24.90;37.00
62809;DHT22;48848;39.002;-94.584;2022-09-01T02:10:32;24.90;36.40
62809;DHT22;48848;39.002;-94.584;2022-09-01T02:12:59;24.90;36.20
62809;DHT22;48848;39.002;-94.584;2022-09-01T02:15:29;25.00;36.00
62809;DHT22;48848;39.002;-94.584;2022-09-01T02:17:59;24.90;35.70
62809;DHT22;48848;39.002;-94.584;2022-09-01T02:20:26;24.90;36.60
62809;DHT22;48848;39.002;-94.584;2022-09-01T02:22:57;24.90;35.80
62809;DHT22;48848;39.002;-94.584;2022-09-01T02:25:34;24.90;35.90
62809;DHT22;48848;39.002;-94.584;2022-09-01T02:28:00;24.90;35.50
62809;DHT22;48848;39.002;-94.584;2022-09-01T02:30:31;25.00;35.40
62809;DHT22;48848;39.002;-94.584;2022-09-01T02:32:58;25.00;35.40
62809;DHT22;48848;39.002;-94.584;2022-09-01T02:35:24;25.00;35.20
62809;DHT22;48848;39.002;-94.584;2022-09-01T02:37:59;25.00;35.20
62809;DHT22;48848;39.002;-94.584;2022-09-01T02:40:26;24.90;35.30
62809;DHT22;48848;39.002;-94.584;2022-09-01T02:42:55;24.80;35.40
62809;DHT22;48848;39.002;-94.584;2022-09-01T02:45:21;24.90;35.50
62809;DHT22;48848;39.002;-94.584;2022-09-01T02:47:49;24.90;35.30
62809;DHT22;48848;39.002;-94.584;2022-09-01T02:50:16;24.90;35.40
62809;DHT22;48848;39.002;-94.584;2022-09-01T02:52:44;24.80;35.30
62809;DHT22;48848;39.002;-94.584;2022-09-01T02:55:10;24.70;35.30
62809;DHT22;48848;39.002;-94.584;2022-09-01T02:57:37;24.70;35.30
62809;DHT22;48848;39.002;-94.584;2022-09-01T03:00:04;24.70;35.40
62809;DHT22;48848;39.002;-94.584;2022-09-01T03:02:47;24.70;35.30
62809;DHT22;48848;39.002;-94.584;2022-09-01T03:05:12;24.70;35.20
62809;DHT22;48848;39.002;-94.584;2022-09-01T03:07:41;24.70;35.20
62809;DHT22;48848;39.002;-94.584;2022-09-01T03:10:07;24.70;35.20
62809;DHT22;48848;39.002;-94.584;2022-09-01T03:12:34;24.70;35.10
62809;DHT22;48848;39.002;-94.584;2022-09-01T03:15:00;24.70;35.00
62809;DHT22;48848;39.002;-94.584;2022-09-01T03:17:26;24.70;35.00
62809;DHT22;48848;39.002;-94.584;2022-09-01T03:19:51;24.80;34.90
62809;DHT22;48848;39.002;-94.584;2022-09-01T03:22:19;24.70;34.70
62809;DHT22;48848;39.002;-94.584;2022-09-01T03:24:46;24.70;34.60
62809;DHT22;48848;39.002;-94.584;2022-09-01T03:27:12;24.70;34.60
62809;DHT22;48848;39.002;-94.584;2022-09-01T03:29:38;24.60;34.50
62809;DHT22;48848;39.002;-94.584;2022-09-01T03:32:04;24.60;34.50
62809;DHT22;48848;39.002;-94.584;2022-09-01T03:34:30;24.60;34.50
62809;DHT22;48848;39.002;-94.584;2022-09-01T03:36:58;24.60;34.50
62809;DHT22;48848;39.002;-94.584;2022-09-01T03:39:26;24.60;34.50
62809;DHT22;48848;39.002;-94.584;2022-09-01T03:41:52;24.60;34.60
62809;DHT22;48848;39.002;-94.584;2022-09-01T03:44:19;24.50;34.50
62809;DHT22;48848;39.002;-94.584;2022-09-01T03:46:45;24.50;34.50
62809;DHT22;48848;39.002;-94.584;2022-09-01T03:49:11;24.50;34.40
62809;DHT22;48848;39.002;-94.584;2022-09-01T03:51:49;23.50;35.30
62809;DHT22;48848;39.002;-94.584;2022-09-01T03:54:18;23.00;36.20
62809;DHT22;48848;39.002;-94.584;2022-09-01T03:56:45;22.70;36.70
62809;DHT22;48848;39.002;-94.584;2022-09-01T03:59:12;22.60;37.10
62809;DHT22;48848;39.002;-94.584;2022-09-01T04:01:41;22.50;37.20
62809;DHT22;48848;39.002;-94.584;2022-09-01T04:04:08;22.40;37.50
62809;DHT22;48848;39.002;-94.584;2022-09-01T04:06:38;22.40;37.50
62809;DHT22;48848;39.002;-94.584;2022-09-01T04:09:05;22.20;37.60
62809;DHT22;48848;39.002;-94.584;2022-09-01T04:11:31;22.10;37.60
62809;DHT22;48848;39.002;-94.584;2022-09-01T04:13:58;22.10;37.80
62809;DHT22;48848;39.002;-94.584;2022-09-01T04:16:28;22.00;37.90
62809;DHT22;48848;39.002;-94.584;2022-09-01T04:19:14;22.00;37.90
62809;DHT22;48848;39.002;-94.584;2022-09-01T04:21:54;21.90;38.00
62809;DHT22;48848;39.002;-94.584;2022-09-01T04:24:21;21.80;39.00
62809;DHT22;48848;39.002;-94.584;2022-09-01T04:26:49;21.90;38.10
62809;DHT22;48848;39.002;-94.584;2022-09-01T04:29:16;21.80;38.20
62809;DHT22;48848;39.002;-94.584;2022-09-01T04:31:43;21.80;38.10
62809;DHT22;48848;39.002;-94.584;2022-09-01T04:34:09;21.70;38.20
62809;DHT22;48848;39.002;-94.584;2022-09-01T04:36:39;21.70;38.30
62809;DHT22;48848;39.002;-94.584;2022-09-01T04:39:06;21.70;38.30
62809;DHT22;48848;39.002;-94.584;2022-09-01T04:41:35;21.60;38.30
62809;DHT22;48848;39.002;-94.584;2022-09-01T04:44:02;21.60;38.40
62809;DHT22;48848;39.002;-94.584;2022-09-01T04:46:33;21.60;38.50
62809;DHT22;48848;39.002;-94.584;2022-09-01T04:49:00;21.60;38.50
62809;DHT22;48848;39.002;-94.584;2022-09-01T04:51:36;21.60;38.50
62809;DHT22;48848;39.002;-94.584;2022-09-01T04:54:03;21.50;38.50
62809;DHT22;48848;39.002;-94.584;2022-09-01T04:56:32;21.50;38.50
62809;DHT22;48848;39.002;-94.584;2022-09-01T04:59:00;21.50;38.70
62809;DHT22;48848;39.002;-94.584;2022-09-01T05:01:26;21.40;38.80
62809;DHT22;48848;39.002;-94.584;2022-09-01T05:03:52;21.40;38.70
62809;DHT22;48848;39.002;-94.584;2022-09-01T05:06:26;21.40;38.80
62809;DHT22;48848;39.002;-94.584;2022-09-01T05:08:53;21.40;39.00
62809;DHT22;48848;39.002;-94.584;2022-09-01T05:11:20;21.60;42.20
62809;DHT22;48848;39.002;-94.584;2022-09-01T05:13:48;21.70;44.00
62809;DHT22;48848;39.002;-94.584;2022-09-01T05:16:16;21.80;43.20
62809;DHT22;48848;39.002;-94.584;2022-09-01T05:18:44;22.00;42.60
62809;DHT22;48848;39.002;-94.584;2022-09-01T05:21:13;22.20;42.20
62809;DHT22;48848;39.002;-94.584;2022-09-01T05:23:44;22.40;41.90
62809;DHT22;48848;39.002;-94.584;2022-09-01T05:26:12;22.50;41.60
62809;DHT22;48848;39.002;-94.584;2022-09-01T05:28:43;22.50;41.70
62809;DHT22;48848;39.002;-94.584;2022-09-01T05:31:08;22.30;40.40
62809;DHT22;48848;39.002;-94.584;2022-09-01T05:33:35;22.10;40.50
62809;DHT22;48848;39.002;-94.584;2022-09-01T05:36:02;22.00;40.30
62809;DHT22;48848;39.002;-94.584;2022-09-01T05:38:32;21.80;40.20
62809;DHT22;48848;39.002;-94.584;2022-09-01T05:41:00;21.80;40.00
62809;DHT22;48848;39.002;-94.584;2022-09-01T05:43:29;21.70;39.80
62809;DHT22;48848;39.002;-94.584;2022-09-01T05:45:58;21.80;42.20
62809;DHT22;48848;39.002;-94.584;2022-09-01T05:48:25;22.00;44.50
62809;DHT22;48848;39.002;-94.584;2022-09-01T05:50:52;22.10;44.70
62809;DHT22;48848;39.002;-94.584;2022-09-01T05:53:26;22.20;43.50
62809;DHT22;48848;39.002;-94.584;2022-09-01T05:55:53;22.40;43.10
62809;DHT22;48848;39.002;-94.584;2022-09-01T05:58:23;22.60;42.90
62809;DHT22;48848;39.002;-94.584;2022-09-01T06:00:51;22.70;43.00
62809;DHT22;48848;39.002;-94.584;2022-09-01T06:03:18;22.80;43.00
62809;DHT22;48848;39.002;-94.584;2022-09-01T06:05:44;22.80;42.70
62809;DHT22;48848;39.002;-94.584;2022-09-01T06:08:12;22.70;41.80
62809;DHT22;48848;39.002;-94.584;2022-09-01T06:10:39;22.40;41.10
62809;DHT22;48848;39.002;-94.584;2022-09-01T06:13:06;22.20;40.90
62809;DHT22;48848;39.002;-94.584;2022-09-01T06:15:33;22.20;40.80
62809;DHT22;48848;39.002;-94.584;2022-09-01T06:18:04;22.10;40.60
62809;DHT22;48848;39.002;-94.584;2022-09-01T06:20:30;22.00;40.50
62809;DHT22;48848;39.002;-94.584;2022-09-01T06:22:56;22.00;40.70
62809;DHT22;48848;39.002;-94.584;2022-09-01T06:25:22;22.10;43.70
62809;DHT22;48848;39.002;-94.584;2022-09-01T06:27:50;22.20;45.30
62809;DHT22;48848;39.002;-94.584;2022-09-01T06:30:17;22.30;44.40
62809;DHT22;48848;39.002;-94.584;2022-09-01T06:32:45;22.50;43.80
62809;DHT22;48848;39.002;-94.584;2022-09-01T06:35:11;22.60;43.40
62809;DHT22;48848;39.002;-94.584;2022-09-01T06:37:38;22.80;43.30
62809;DHT22;48848;39.002;-94.584;2022-09-01T06:40:04;22.90;43.00
62809;DHT22;48848;39.002;-94.584;2022-09-01T06:42:30;22.90;42.80
62809;DHT22;48848;39.002;-94.584;2022-09-01T06:45:00;23.00;42.70
62809;DHT22;48848;39.002;-94.584;2022-09-01T06:47:26;23.10;43.00
62809;DHT22;48848;39.002;-94.584;2022-09-01T06:49:53;23.10;43.20
62809;DHT22;48848;39.002;-94.584;2022-09-01T06:52:23;23.20;43.30
62809;DHT22;48848;39.002;-94.584;2022-09-01T06:54:49;23.20;43.20
62809;DHT22;48848;39.002;-94.584;2022-09-01T06:57:17;23.10;41.90
62809;DHT22;48848;39.002;-94.584;2022-09-01T06:59:43;22.80;41.10
62809;DHT22;48848;39.002;-94.584;2022-09-01T07:02:10;22.60;40.90
62809;DHT22;48848;39.002;-94.584;2022-09-01T07:04:41;22.40;40.90
62809;DHT22;48848;39.002;-94.584;2022-09-01T07:07:10;22.40;41.00
62809;DHT22;48848;39.002;-94.584;2022-09-01T07:09:37;22.20;40.60
62809;DHT22;48848;39.002;-94.584;2022-09-01T07:12:05;22.40;43.40
62809;DHT22;48848;39.002;-94.584;2022-09-01T07:14:30;22.50;45.00
62809;DHT22;48848;39.002;-94.584;2022-09-01T07:16:56;22.60;45.00
62809;DHT22;48848;39.002;-94.584;2022-09-01T07:19:23;22.70;43.90
62809;DHT22;48848;39.002;-94.584;2022-09-01T07:21:50;22.90;43.70
62809;DHT22;48848;39.002;-94.584;2022-09-01T07:24:17;23.00;43.40
62809;DHT22;48848;39.002;-94.584;2022-09-01T07:26:43;23.10;43.40
62809;DHT22;48848;39.002;-94.584;2022-09-01T07:29:10;23.10;43.40
62809;DHT22;48848;39.002;-94.584;2022-09-01T07:31:37;23.20;43.40
62809;DHT22;48848;39.002;-94.584;2022-09-01T07:34:06;23.30;43.60
62809;DHT22;48848;39.002;-94.584;2022-09-01T07:36:37;23.20;43.50
62809;DHT22;48848;39.002;-94.584;2022-09-01T07:39:04;23.30;43.10
62809;DHT22;48848;39.002;-94.584;2022-09-01T07:41:30;23.30;43.10
62809;DHT22;48848;39.002;-94.584;2022-09-01T07:43:59;23.30;43.30
62809;DHT22;48848;39.002;-94.584;2022-09-01T07:46:27;23.40;43.00
62809;DHT22;48848;39.002;-94.584;2022-09-01T07:48:56;23.30;42.80
62809;DHT22;48848;39.002;-94.584;2022-09-01T07:51:24;23.00;41.20
62809;DHT22;48848;39.002;-94.584;2022-09-01T07:53:51;22.80;41.30
62809;DHT22;48848;39.002;-94.584;2022-09-01T07:56:18;22.60;41.20
62809;DHT22;48848;39.002;-94.584;2022-09-01T07:58:45;22.50;40.90
62809;DHT22;48848;39.002;-94.584;2022-09-01T08:01:18;22.40;40.90
62809;DHT22;48848;39.002;-94.584;2022-09-01T08:03:46;22.30;40.70
62809;DHT22;48848;39.002;-94.584;2022-09-01T08:06:13;22.20;40.50
62809;DHT22;48848;39.002;-94.584;2022-09-01T08:08:43;22.10;40.30
62809;DHT22;48848;39.002;-94.584;2022-09-01T08:11:14;22.10;40.30
62809;DHT22;48848;39.002;-94.584;2022-09-01T08:13:40;22.10;41.50
62809;DHT22;48848;39.002;-94.584;2022-09-01T08:16:06;22.30;41.60
62809;DHT22;48848;39.002;-94.584;2022-09-01T08:18:32;22.60;40.90
62809;DHT22;48848;39.002;-94.584;2022-09-01T08:20:59;22.70;40.70
62809;DHT22;48848;39.002;-94.584;2022-09-01T08:23:25;22.80;40.80
62809;DHT22;48848;39.002;-94.584;2022-09-01T08:25:52;22.90;41.00
62809;DHT22;48848;39.002;-94.584;2022-09-01T08:28:18;22.90;40.80
62809;DHT22;48848;39.002;-94.584;2022-09-01T08:30:45;23.00;41.10
62809;DHT22;48848;39.002;-94.584;2022-09-01T08:33:13;23.10;41.30
62809;DHT22;48848;39.002;-94.584;2022-09-01T08:35:43;23.10;41.20
62809;DHT22;48848;39.002;-94.584;2022-09-01T08:38:09;23.10;41.20
62809;DHT22;48848;39.002;-94.584;2022-09-01T08:40:35;23.20;41.40
62809;DHT22;48848;39.002;-94.584;2022-09-01T08:45:51;23.30;41.40
62809;DHT22;48848;39.002;-94.584;2022-09-01T08:48:19;23.30;41.50
62809;DHT22;48848;39.002;-94.584;2022-09-01T08:50:48;23.30;41.60
62809;DHT22;48848;39.002;-94.584;2022-09-01T08:53:26;23.30;41.80
62809;DHT22;48848;39.002;-94.584;2022-09-01T08:55:54;23.40;41.40
62809;DHT22;48848;39.002;-94.584;2022-09-01T08:58:21;23.40;41.40
62809;DHT22;48848;39.002;-94.584;2022-09-01T09:00:50;23.40;41.60
62809;DHT22;48848;39.002;-94.584;2022-09-01T09:08:32;23.50;41.70
62809;DHT22;48848;39.002;-94.584;2022-09-01T09:11:20;23.50;42.10
62809;DHT22;48848;39.002;-94.584;2022-09-01T09:14:00;23.60;42.50
62809;DHT22;48848;39.002;-94.584;2022-09-01T09:16:31;23.60;41.90
62809;DHT22;48848;39.002;-94.584;2022-09-01T09:19:02;23.60;41.90
62809;DHT22;48848;39.002;-94.584;2022-09-01T09:21:33;23.70;42.00
62809;DHT22;48848;39.002;-94.584;2022-09-01T09:26:49;23.70;42.20
62809;DHT22;48848;39.002;-94.584;2022-09-01T09:29:15;23.70;42.20
62809;DHT22;48848;39.002;-94.584;2022-09-01T09:31:41;23.70;42.20
62809;DHT22;48848;39.002;-94.584;2022-09-01T09:34:17;23.80;42.70
62809;DHT22;48848;39.002;-94.584;2022-09-01T09:36:53;23.80;42.70
62809;DHT22;48848;39.002;-94.584;2022-09-01T09:39:19;23.80;42.70
62809;DHT22;48848;39.002;-94.584;2022-09-01T09:42:06;23.80;42.60
62809;DHT22;48848;39.002;-94.584;2022-09-01T09:44:37;23.80;42.70
62809;DHT22;48848;39.002;-94.584;2022-09-01T09:47:04;23.80;42.50
62809;DHT22;48848;39.002;-94.584;2022-09-01T09:49:33;23.90;42.60
62809;DHT22;48848;39.002;-94.584;2022-09-01T09:54:29;23.80;42.50
62809;DHT22;48848;39.002;-94.584;2022-09-01T09:57:08;23.90;42.60
62809;DHT22;48848;39.002;-94.584;2022-09-01T10:04:50;23.90;42.60
62809;DHT22;48848;39.002;-94.584;2022-09-01T10:07:24;23.90;42.90
62809;DHT22;48848;39.002;-94.584;2022-09-01T10:09:51;23.90;42.80
62809;DHT22;48848;39.002;-94.584;2022-09-01T10:12:17;24.00;42.80
62809;DHT22;48848;39.002;-94.584;2022-09-01T10:14:57;24.00;42.80
62809;DHT22;48848;39.002;-94.584;2022-09-01T10:19:55;24.00;42.80
62809;DHT22;48848;39.002;-94.584;2022-09-01T10:22:21;23.90;42.10
62809;DHT22;48848;39.002;-94.584;2022-09-01T10:24:48;23.60;41.30
62809;DHT22;48848;39.002;-94.584;2022-09-01T10:27:23;23.30;41.10
62809;DHT22;48848;39.002;-94.584;2022-09-01T10:32:28;23.00;40.80
62809;DHT22;48848;39.002;-94.584;2022-09-01T10:34:56;22.90;40.70
62809;DHT22;48848;39.002;-94.584;2022-09-01T10:37:22;22.90;43.30
62809;DHT22;48848;39.002;-94.584;2022-09-01T10:40:09;23.00;45.80
62809;DHT22;48848;39.002;-94.584;2022-09-01T10:42:35;23.00;45.70
62809;DHT22;48848;39.002;-94.584;2022-09-01T10:45:01;23.20;44.20
62809;DHT22;48848;39.002;-94.584;2022-09-01T10:47:29;23.30;43.80
62809;DHT22;48848;39.002;-94.584;2022-09-01T10:50:05;23.40;43.60
62809;DHT22;48848;39.002;-94.584;2022-09-01T10:55:23;23.50;43.50
62809;DHT22;48848;39.002;-94.584;2022-09-01T11:05:57;23.60;43.50
62809;DHT22;48848;39.002;-94.584;2022-09-01T11:08:22;23.70;43.60
62809;DHT22;48848;39.002;-94.584;2022-09-01T11:13:40;23.70;43.80
62809;DHT22;48848;39.002;-94.584;2022-09-01T11:16:24;23.70;43.90
62809;DHT22;48848;39.002;-94.584;2022-09-01T11:18:50;23.80;44.00
62809;DHT22;48848;39.002;-94.584;2022-09-01T11:21:22;23.80;43.80
62809;DHT22;48848;39.002;-94.584;2022-09-01T11:23:49;23.80;44.00
62809;DHT22;48848;39.002;-94.584;2022-09-01T11:28:56;23.80;43.90
62809;DHT22;48848;39.002;-94.584;2022-09-01T11:31:28;23.90;43.90
62809;DHT22;48848;39.002;-94.584;2022-09-01T11:36:34;23.90;43.80
62809;DHT22;48848;39.002;-94.584;2022-09-01T11:44:10;23.90;43.80
62809;DHT22;48848;39.002;-94.584;2022-09-01T11:46:36;23.90;43.90
62809;DHT22;48848;39.002;-94.584;2022-09-01T11:49:07;23.90;43.70
62809;DHT22;48848;39.002;-94.584;2022-09-01T11:51:41;24.00;43.90
62809;DHT22;48848;39.002;-94.584;2022-09-01T11:54:09;23.80;44.10
62809;DHT22;48848;39.002;-94.584;2022-09-01T11:56:34;23.90;44.00
62809;DHT22;48848;39.002;-94.584;2022-09-01T11:59:00;23.90;43.90
62809;DHT22;48848;39.002;-94.584;2022-09-01T12:01:30;24.00;44.00
62809;DHT22;48848;39.002;-94.584;2022-09-01T12:03:57;24.00;43.80
62809;DHT22;48848;39.002;-94.584;2022-09-01T12:06:41;24.00;44.00
62809;DHT22;48848;39.002;-94.584;2022-09-01T12:09:16;24.10;44.00
62809;DHT22;48848;39.002;-94.584;2022-09-01T12:11:41;24.10;44.20
62809;DHT22;48848;39.002;-94.584;2022-09-01T12:14:08;24.10;44.00
62809;DHT22;48848;39.002;-94.584;2022-09-01T12:16:35;24.10;44.00
62809;DHT22;48848;39.002;-94.584;2022-09-01T12:19:02;24.10;44.10
62809;DHT22;48848;39.002;-94.584;2022-09-01T12:21:32;24.10;44.80
62809;DHT22;48848;39.002;-94.584;2022-09-01T12:26:36;24.10;44.20
62809;DHT22;48848;39.002;-94.584;2022-09-01T12:29:04;24.10;43.80
62809;DHT22;48848;39.002;-94.584;2022-09-01T12:31:31;24.10;43.80
62809;DHT22;48848;39.002;-94.584;2022-09-01T12:33:57;24.10;43.90
62809;DHT22;48848;39.002;-94.584;2022-09-01T12:36:27;24.10;44.00
62809;DHT22;48848;39.002;-94.584;2022-09-01T12:38:55;24.10;44.30
62809;DHT22;48848;39.002;-94.584;2022-09-01T12:43:50;24.10;44.00
62809;DHT22;48848;39.002;-94.584;2022-09-01T12:49:16;24.10;44.20
62809;DHT22;48848;39.002;-94.584;2022-09-01T12:51:43;23.90;43.10
62809;DHT22;48848;39.002;-94.584;2022-09-01T12:54:12;23.70;42.20
62809;DHT22;48848;39.002;-94.584;2022-09-01T12:56:38;23.50;42.50
62809;DHT22;48848;39.002;-94.584;2022-09-01T12:59:06;23.30;42.10
62809;DHT22;48848;39.002;-94.584;2022-09-01T13:01:33;23.20;41.90
62809;DHT22;48848;39.002;-94.584;2022-09-01T13:06:43;23.20;43.20
62809;DHT22;48848;39.002;-94.584;2022-09-01T13:09:09;23.50;43.60
62809;DHT22;48848;39.002;-94.584;2022-09-01T13:11:35;23.60;43.20
62809;DHT22;48848;39.002;-94.584;2022-09-01T13:14:01;23.70;43.60
62809;DHT22;48848;39.002;-94.584;2022-09-01T13:16:27;23.70;43.50
62809;DHT22;48848;39.002;-94.584;2022-09-01T13:18:53;23.80;43.40
62809;DHT22;48848;39.002;-94.584;2022-09-01T13:21:19;23.70;43.80
62809;DHT22;48848;39.002;-94.584;2022-09-01T13:23:46;23.70;43.80
62809;DHT22;48848;39.002;-94.584;2022-09-01T13:26:13;23.80;44.10
62809;DHT22;48848;39.002;-94.584;2022-09-01T13:28:39;23.80;44.00
62809;DHT22;48848;39.002;-94.584;2022-09-01T13:31:05;23.80;44.00
62809;DHT22;48848;39.002;-94.584;2022-09-01T13:33:34;23.90;44.00
62809;DHT22;48848;39.002;-94.584;2022-09-01T13:36:01;23.90;45.10
62809;DHT22;48848;39.002;-94.584;2022-09-01T13:38:27;23.70;44.40
62809;DHT22;48848;39.002;-94.584;2022-09-01T13:40:52;23.80;44.60
62809;DHT22;48848;39.002;-94.584;2022-09-01T13:43:20;23.90;44.60
62809;DHT22;48848;39.002;-94.584;2022-09-01T13:45:46;24.00;44.40
62809;DHT22;48848;39.002;-94.584;2022-09-01T13:48:12;24.00;44.30
62809;DHT22;48848;39.002;-94.584;2022-09-01T13:50:39;24.10;44.30
62809;DHT22;48848;39.002;-94.584;2022-09-01T13:53:05;24.10;44.20
62809;DHT22;48848;39.002;-94.584;2022-09-01T13:55:32;24.10;44.20
62809;DHT22;48848;39.002;-94.584;2022-09-01T13:57:58;24.10;44.30
62809;DHT22;48848;39.002;-94.584;2022-09-01T14:00:26;24.00;44.20
62809;DHT22;48848;39.002;-94.584;2022-09-01T14:02:54;24.00;44.30
62809;DHT22;48848;39.002;-94.584;2022-09-01T14:05:26;24.00;44.30
62809;DHT22;48848;39.002;-94.584;2022-09-01T14:07:53;24.10;44.40
62809;DHT22;48848;39.002;-94.584;2022-09-01T14:10:19;24.10;44.50
62809;DHT22;48848;39.002;-94.584;2022-09-01T14:12:46;24.10;44.30
62809;DHT22;48848;39.002;-94.584;2022-09-01T14:15:13;24.10;44.50
62809;DHT22;48848;39.002;-94.584;2022-09-01T14:17:39;24.10;44.50
62809;DHT22;48848;39.002;-94.584;2022-09-01T14:20:07;24.20;44.40
62809;DHT22;48848;39.002;-94.584;2022-09-01T14:22:33;24.20;44.20
62809;DHT22;48848;39.002;-94.584;2022-09-01T14:24:59;24.20;44.20
62809;DHT22;48848;39.002;-94.584;2022-09-01T14:27:26;24.20;44.30
62809;DHT22;48848;39.002;-94.584;2022-09-01T14:29:51;24.20;44.10
62809;DHT22;48848;39.002;-94.584;2022-09-01T14:32:18;24.20;43.90
62809;DHT22;48848;39.002;-94.584;2022-09-01T14:34:47;24.20;44.00
62809;DHT22;48848;39.002;-94.584;2022-09-01T14:37:14;24.20;44.10
62809;DHT22;48848;39.002;-94.584;2022-09-01T14:39:40;24.20;44.60
62809;DHT22;48848;39.002;-94.584;2022-09-01T14:42:06;24.20;44.50
62809;DHT22;48848;39.002;-94.584;2022-09-01T14:44:36;24.10;44.70
62809;DHT22;48848;39.002;-94.584;2022-09-01T14:47:03;24.30;44.80
62809;DHT22;48848;39.002;-94.584;2022-09-01T14:49:30;24.20;44.30
62809;DHT22;48848;39.002;-94.584;2022-09-01T14:51:57;24.10;44.90
62809;DHT22;48848;39.002;-94.584;2022-09-01T14:54:23;24.30;44.70
62809;DHT22;48848;39.002;-94.584;2022-09-01T14:56:49;24.30;44.60
62809;DHT22;48848;39.002;-94.584;2022-09-01T14:59:15;24.30;46.90
62809;DHT22;48848;39.002;-94.584;2022-09-01T15:01:42;24.30;45.40
62809;DHT22;48848;39.002;-94.584;2022-09-01T15:04:08;24.40;44.70
62809;DHT22;48848;39.002;-94.584;2022-09-01T15:06:34;24.40;45.10
62809;DHT22;48848;39.002;-94.584;2022-09-01T15:09:00;24.40;44.40
62809;DHT22;48848;39.002;-94.584;2022-09-01T15:11:27;24.40;45.20
62809;DHT22;48848;39.002;-94.584;2022-09-01T15:13:53;24.40;44.50
62809;DHT22;48848;39.002;-94.584;2022-09-01T15:16:21;24.40;45.20
62809;DHT22;48848;39.002;-94.584;2022-09-01T15:18:47;24.40;44.70
62809;DHT22;48848;39.002;-94.584;2022-09-01T15:21:20;24.50;44.60
62809;DHT22;48848;39.002;-94.584;2022-09-01T15:23:46;24.50;44.50
62809;DHT22;48848;39.002;-94.584;2022-09-01T15:26:13;24.50;44.50
62809;DHT22;48848;39.002;-94.584;2022-09-01T15:28:42;24.50;44.30
62809;DHT22;48848;39.002;-94.584;2022-09-01T15:31:08;24.50;43.90
62809;DHT22;48848;39.002;-94.584;2022-09-01T15:33:35;24.40;44.30
62809;DHT22;48848;39.002;-94.584;2022-09-01T15:36:01;24.40;44.00
62809;DHT22;48848;39.002;-94.584;2022-09-01T15:38:27;24.40;43.90
62809;DHT22;48848;39.002;-94.584;2022-09-01T15:40:53;24.40;44.00
62809;DHT22;48848;39.002;-94.584;2022-09-01T15:43:20;24.40;44.10
62809;DHT22;48848;39.002;-94.584;2022-09-01T15:45:46;24.40;43.90
62809;DHT22;48848;39.002;-94.584;2022-09-01T15:48:12;24.40;44.00
62809;DHT22;48848;39.002;-94.584;2022-09-01T15:50:38;24.50;44.00
62809;DHT22;48848;39.002;-94.584;2022-09-01T15:53:04;24.50;44.10
62809;DHT22;48848;39.002;-94.584;2022-09-01T15:55:37;24.60;44.20
62809;DHT22;48848;39.002;-94.584;2022-09-01T15:58:05;24.60;44.20
62809;DHT22;48848;39.002;-94.584;2022-09-01T16:00:31;24.60;44.10
62809;DHT22;48848;39.002;-94.584;2022-09-01T16:02:58;24.70;44.20
62809;DHT22;48848;39.002;-94.584;2022-09-01T16:05:26;24.60;43.90
62809;DHT22;48848;39.002;-94.584;2022-09-01T16:07:52;24.60;44.10